createdAt,value
2023-05-24T00:00:53.663Z,16.83
2023-05-24T00:03:26.448Z,16.78
2023-05-24T00:05:59.150Z,16.79
2023-05-24T00:08:31.839Z,16.79
2023-05-24T00:11:04.611Z,16.77
2023-05-24T00:13:37.591Z,16.76
2023-05-24T00:16:13.098Z,16.75
2023-05-24T00:18:48.545Z,16.75
2023-05-24T00:21:21.400Z,16.75
2023-05-24T00:24:11.570Z,16.74
2023-05-24T00:27:06.841Z,16.74
2023-05-24T00:29:40.101Z,16.74
2023-05-24T00:32:10.878Z,16.74
2023-05-24T00:34:43.688Z,16.66
2023-05-24T00:37:18.454Z,16.64
2023-05-24T00:39:51.470Z,16.62
2023-05-24T00:42:24.311Z,16.59
2023-05-24T00:44:57.331Z,16.59
2023-05-24T00:47:29.827Z,16.55
2023-05-24T00:50:03.161Z,16.50
2023-05-24T00:52:36.406Z,16.45
2023-05-24T00:55:11.462Z,16.41
2023-05-24T00:57:46.882Z,16.39
2023-05-24T01:00:23.664Z,16.39
2023-05-24T01:02:58.899Z,16.37
2023-05-24T01:05:33.893Z,16.33
2023-05-24T01:08:17.467Z,16.30
2023-05-24T01:11:01.525Z,16.25
2023-05-24T01:13:46.229Z,16.23
2023-05-24T01:16:23.327Z,16.21
2023-05-24T01:18:58.873Z,16.19
2023-05-24T01:21:49.446Z,16.18
2023-05-24T01:24:32.624Z,16.18
2023-05-24T01:27:14.217Z,16.16
2023-05-24T01:29:53.668Z,16.14
2023-05-24T01:32:27.743Z,16.16
2023-05-24T01:35:01.103Z,16.14
2023-05-24T01:37:33.915Z,16.13
2023-05-24T01:40:07.970Z,16.14
2023-05-24T01:42:51.523Z,16.14
2023-05-24T01:45:31.684Z,16.12
2023-05-24T01:48:19.228Z,16.10
2023-05-24T01:50:55.138Z,16.06
2023-05-24T01:53:34.497Z,16.04
2023-05-24T01:56:09.321Z,16.04
2023-05-24T01:58:46.504Z,16.02
2023-05-24T02:01:19.810Z,16.05
2023-05-24T02:03:55.052Z,16.07
2023-05-24T02:06:27.831Z,16.03
2023-05-24T02:09:00.614Z,16.01
2023-05-24T02:11:36.181Z,15.99
2023-05-24T02:14:09.867Z,15.97
2023-05-24T02:16:43.165Z,15.95
2023-05-24T02:19:16.009Z,15.86
2023-05-24T02:21:49.312Z,15.75
2023-05-24T02:24:22.173Z,15.75
2023-05-24T02:26:55.816Z,15.79
2023-05-24T02:29:28.961Z,15.84
2023-05-24T02:32:01.638Z,15.80
2023-05-24T02:34:34.454Z,15.76
2023-05-24T02:37:07.258Z,15.74
2023-05-24T02:39:40.112Z,15.70
2023-05-24T02:42:13.153Z,15.70
2023-05-24T02:44:50.494Z,15.68
2023-05-24T02:47:23.806Z,15.64
2023-05-24T02:49:56.613Z,15.61
2023-05-24T02:52:33.492Z,15.55
2023-05-24T02:55:07.184Z,15.52
2023-05-24T02:57:39.963Z,15.50
2023-05-24T03:00:16.378Z,15.48
2023-05-24T03:02:55.928Z,15.46
2023-05-24T03:05:28.599Z,15.45
2023-05-24T03:08:01.100Z,15.44
2023-05-24T03:10:35.636Z,15.43
2023-05-24T03:13:08.282Z,15.47
2023-05-24T03:15:43.389Z,15.45
2023-05-24T03:18:16.398Z,15.47
2023-05-24T03:20:50.062Z,15.49
2023-05-24T03:23:22.599Z,15.48
2023-05-24T03:25:55.344Z,15.46
2023-05-24T03:28:28.074Z,15.45
2023-05-24T03:31:00.816Z,15.47
2023-05-24T03:33:33.637Z,15.43
2023-05-24T03:36:06.870Z,15.40
2023-05-24T03:38:39.825Z,15.43
2023-05-24T03:41:12.519Z,15.44
2023-05-24T03:43:44.965Z,15.45
2023-05-24T03:46:24.307Z,15.46
2023-05-24T03:48:56.970Z,15.46
2023-05-24T03:51:30.642Z,15.49
2023-05-24T03:54:03.972Z,15.50
2023-05-24T03:56:36.686Z,15.48
2023-05-24T03:59:09.217Z,15.49
2023-05-24T04:01:42.912Z,15.49
2023-05-24T04:04:15.628Z,15.47
2023-05-24T04:06:50.189Z,15.46
2023-05-24T04:09:25.249Z,15.48
2023-05-24T04:11:58.121Z,15.49
2023-05-24T04:14:29.202Z,15.51
2023-05-24T04:17:03.008Z,15.47
2023-05-24T04:19:35.551Z,15.50
2023-05-24T04:22:10.834Z,15.51
2023-05-24T04:24:43.413Z,15.50
2023-05-24T04:27:18.524Z,15.48
2023-05-24T04:29:54.342Z,15.47
2023-05-24T04:32:30.832Z,15.43
2023-05-24T04:35:06.287Z,15.44
2023-05-24T04:37:40.573Z,15.44
2023-05-24T04:40:16.744Z,15.44
2023-05-24T04:42:49.326Z,15.44
2023-05-24T04:45:21.920Z,15.45
2023-05-24T04:47:54.760Z,15.42
2023-05-24T04:50:30.434Z,15.40
2023-05-24T04:53:04.529Z,15.41
2023-05-24T04:55:37.494Z,15.42
2023-05-24T04:58:10.860Z,15.42
2023-05-24T05:00:43.985Z,15.44
2023-05-24T05:03:21.002Z,15.45
2023-05-24T05:05:54.087Z,15.46
2023-05-24T05:08:27.064Z,15.47
2023-05-24T05:10:59.661Z,15.43
2023-05-24T05:13:33.901Z,15.44
2023-05-24T05:16:11.771Z,15.44
2023-05-24T05:18:45.413Z,15.43
2023-05-24T05:21:18.757Z,15.41
2023-05-24T05:23:51.822Z,15.33
2023-05-24T05:26:24.428Z,15.33
2023-05-24T05:28:57.295Z,15.36
2023-05-24T05:31:32.620Z,15.33
2023-05-24T05:34:05.810Z,15.32
2023-05-24T05:36:40.931Z,15.34
2023-05-24T05:39:15.357Z,15.30
2023-05-24T05:41:48.110Z,15.37
2023-05-24T05:44:20.947Z,15.38
2023-05-24T05:46:53.655Z,15.42
2023-05-24T05:49:26.467Z,15.39
2023-05-24T05:51:58.973Z,15.41
2023-05-24T05:54:31.757Z,15.43
2023-05-24T05:57:13.790Z,15.42
2023-05-24T05:59:46.528Z,15.45
2023-05-24T06:02:19.215Z,15.48
2023-05-24T06:04:53.376Z,15.45
2023-05-24T06:07:26.081Z,15.47
2023-05-24T06:09:58.952Z,15.49
2023-05-24T06:12:31.552Z,15.51
2023-05-24T06:15:06.950Z,15.53
2023-05-24T06:17:39.999Z,15.55
2023-05-24T06:20:17.585Z,15.57
2023-05-24T06:22:51.123Z,15.57
2023-05-24T06:25:24.889Z,15.59
2023-05-24T06:27:58.849Z,15.61
2023-05-24T06:30:35.035Z,15.65
2023-05-24T06:33:07.950Z,15.65
2023-05-24T06:35:40.493Z,15.69
2023-05-24T06:38:13.200Z,15.69
2023-05-24T06:40:46.259Z,15.73
2023-05-24T06:43:19.233Z,15.74
2023-05-24T06:45:52.035Z,15.78
2023-05-24T06:48:24.885Z,15.79
2023-05-24T06:50:58.283Z,15.84
2023-05-24T06:53:31.016Z,15.87
2023-05-24T06:56:03.944Z,15.83
2023-05-24T06:58:36.865Z,15.79
2023-05-24T07:01:10.083Z,15.78
2023-05-24T07:03:42.992Z,15.82
2023-05-24T07:06:16.870Z,15.84
2023-05-24T07:08:49.507Z,15.84
2023-05-24T07:11:22.415Z,15.89
2023-05-24T07:13:56.254Z,15.88
2023-05-24T07:16:29.398Z,15.91
2023-05-24T07:19:04.674Z,15.89
2023-05-24T07:21:38.072Z,15.92
2023-05-24T07:24:15.396Z,15.96
2023-05-24T07:26:49.141Z,15.99
2023-05-24T07:29:22.340Z,15.98
2023-05-24T07:31:56.962Z,16.03
2023-05-24T07:34:30.727Z,16.03
2023-05-24T07:37:03.872Z,16.06
2023-05-24T07:39:36.553Z,16.07
2023-05-24T07:42:10.011Z,16.10
2023-05-24T07:44:42.602Z,16.12
2023-05-24T07:47:16.256Z,16.14
2023-05-24T07:49:49.119Z,16.16
2023-05-24T07:52:23.659Z,16.19
2023-05-24T07:54:56.378Z,16.21
2023-05-24T07:57:29.760Z,16.24
2023-05-24T08:00:09.211Z,16.26
2023-05-24T08:02:46.794Z,16.28
2023-05-24T08:05:19.758Z,16.27
2023-05-24T08:07:52.864Z,16.33
2023-05-24T08:10:25.994Z,16.37
2023-05-24T08:12:57.488Z,16.41
2023-05-24T08:15:30.109Z,16.39
2023-05-24T08:18:04.123Z,16.40
2023-05-24T08:20:37.000Z,16.43
2023-05-24T08:23:09.499Z,16.43
2023-05-24T08:25:42.969Z,16.54
2023-05-24T08:28:18.208Z,16.63
2023-05-24T08:30:54.234Z,16.69
2023-05-24T08:33:27.092Z,16.72
2023-05-24T08:35:59.613Z,16.83
2023-05-24T08:38:32.161Z,16.88
2023-05-24T08:41:07.385Z,17.01
2023-05-24T08:43:41.193Z,17.15
2023-05-24T08:46:15.914Z,17.30
2023-05-24T08:48:50.223Z,17.44
2023-05-24T08:51:23.927Z,17.49
2023-05-24T08:53:57.993Z,17.59
2023-05-24T08:56:31.024Z,17.57
2023-05-24T08:59:03.777Z,17.66
2023-05-24T09:01:39.850Z,17.67
2023-05-24T09:04:13.557Z,17.75
2023-05-24T09:06:46.490Z,17.82
2023-05-24T09:09:20.290Z,17.82
2023-05-24T09:11:58.793Z,17.82
2023-05-24T09:14:32.118Z,17.79
2023-05-24T09:17:06.134Z,17.75
2023-05-24T09:19:39.699Z,17.79
2023-05-24T09:22:13.154Z,17.79
2023-05-24T09:24:51.207Z,17.78
2023-05-24T09:27:24.278Z,17.71
2023-05-24T09:29:56.846Z,17.64
2023-05-24T09:32:30.938Z,17.47
2023-05-24T09:35:04.733Z,17.34
2023-05-24T09:37:40.829Z,17.15
2023-05-24T09:40:22.546Z,17.03
2023-05-24T09:43:09.241Z,16.86
2023-05-24T09:45:47.198Z,16.66
2023-05-24T09:48:22.665Z,16.60
2023-05-24T09:51:05.894Z,16.49
2023-05-24T09:53:39.101Z,16.39
2023-05-24T09:56:12.168Z,16.30
2023-05-24T09:58:46.742Z,16.26
2023-05-24T10:01:21.495Z,16.23
2023-05-24T10:03:59.423Z,16.27
2023-05-24T10:06:33.614Z,16.27
2023-05-24T10:09:10.371Z,16.27
2023-05-24T10:11:45.402Z,16.29
2023-05-24T10:14:33.913Z,16.27
2023-05-24T10:17:28.403Z,16.26
2023-05-24T10:20:01.528Z,16.28
2023-05-24T10:22:38.978Z,16.18
2023-05-24T10:25:19.130Z,16.27
2023-05-24T10:27:54.441Z,16.31
2023-05-24T10:30:35.587Z,16.47
2023-05-24T10:33:10.453Z,16.62
2023-05-24T10:35:45.909Z,16.73
2023-05-24T10:38:18.862Z,16.83
2023-05-24T10:40:52.148Z,16.87
2023-05-24T10:43:26.144Z,16.85
2023-05-24T10:45:59.483Z,16.90
2023-05-24T10:48:42.030Z,16.90
2023-05-24T10:51:39.302Z,16.73
2023-05-24T10:54:20.593Z,16.66
2023-05-24T10:56:54.703Z,16.64
2023-05-24T10:59:30.477Z,16.67
2023-05-24T11:02:05.078Z,16.65
2023-05-24T11:04:43.656Z,16.54
2023-05-24T11:07:20.534Z,16.51
2023-05-24T11:09:57.648Z,16.43
2023-05-24T11:12:39.339Z,16.46
2023-05-24T11:15:16.575Z,16.44
2023-05-24T11:18:20.884Z,16.45
2023-05-24T11:20:54.524Z,16.53
2023-05-24T11:23:27.380Z,16.66
2023-05-24T11:26:00.413Z,16.70
2023-05-24T11:28:34.061Z,16.72
2023-05-24T11:31:11.822Z,16.69
2023-05-24T11:33:46.626Z,16.64
2023-05-24T11:36:20.863Z,16.60
2023-05-24T11:38:55.732Z,16.56
2023-05-24T11:41:28.973Z,16.45
2023-05-24T11:44:00.256Z,16.41
2023-05-24T11:46:33.797Z,16.34
2023-05-24T11:49:07.487Z,16.39
2023-05-24T11:51:40.092Z,16.39
2023-05-24T11:54:14.074Z,16.38
2023-05-24T11:56:46.966Z,16.27
2023-05-24T11:59:24.331Z,16.19
2023-05-24T12:02:03.017Z,16.25
2023-05-24T12:04:37.860Z,16.18
2023-05-24T12:07:14.654Z,16.15
2023-05-24T12:09:47.876Z,16.16
2023-05-24T12:12:26.608Z,16.14
2023-05-24T12:15:04.195Z,16.15
2023-05-24T12:17:37.832Z,16.11
2023-05-24T12:20:15.826Z,16.15
2023-05-24T12:22:54.081Z,16.15
2023-05-24T12:25:28.007Z,16.14
2023-05-24T12:28:00.969Z,16.12
2023-05-24T12:30:33.920Z,16.15
2023-05-24T12:33:09.606Z,16.13
2023-05-24T12:35:51.721Z,16.08
2023-05-24T12:38:26.083Z,16.10
2023-05-24T12:41:12.228Z,16.16
2023-05-24T12:43:48.391Z,16.20
2023-05-24T12:46:21.118Z,16.32
2023-05-24T12:48:53.691Z,16.33
2023-05-24T12:51:26.425Z,16.31
2023-05-24T12:53:58.934Z,16.35
2023-05-24T12:56:31.601Z,16.39
2023-05-24T12:59:04.453Z,16.37
2023-05-24T13:01:37.530Z,16.35
2023-05-24T13:04:14.123Z,16.37
2023-05-24T13:06:48.509Z,16.38
2023-05-24T13:09:22.418Z,16.37
2023-05-24T13:11:55.722Z,16.36
2023-05-24T13:14:26.579Z,16.33
2023-05-24T13:16:59.280Z,16.33
2023-05-24T13:19:32.182Z,16.37
2023-05-24T13:22:05.845Z,16.35
2023-05-24T13:24:39.055Z,16.33
2023-05-24T13:27:09.897Z,16.31
2023-05-24T13:29:56.413Z,16.24
2023-05-24T13:32:33.786Z,16.25
2023-05-24T13:35:08.600Z,16.31
2023-05-24T13:37:41.646Z,16.30
2023-05-24T13:40:15.109Z,16.39
2023-05-24T13:42:48.148Z,16.46
2023-05-24T13:45:24.614Z,16.46
2023-05-24T13:48:04.391Z,16.48
2023-05-24T13:50:38.376Z,16.42
2023-05-24T13:53:11.515Z,16.41
2023-05-24T13:55:44.815Z,16.41
2023-05-24T13:58:18.044Z,16.40
2023-05-24T14:00:48.873Z,16.46
2023-05-24T14:03:21.552Z,16.37
2023-05-24T14:05:54.520Z,16.42
2023-05-24T14:08:30.263Z,16.39
2023-05-24T14:11:03.264Z,16.43
2023-05-24T14:16:13.100Z,16.35
2023-05-24T14:18:46.209Z,16.37
2023-05-24T14:21:19.605Z,16.37
2023-05-24T14:23:53.360Z,16.36
2023-05-24T14:26:26.372Z,16.40
2023-05-24T14:29:00.217Z,16.41
2023-05-24T14:31:34.069Z,16.39
2023-05-24T14:34:06.727Z,16.41
2023-05-24T14:36:40.902Z,16.44
2023-05-24T14:39:13.677Z,16.48
2023-05-24T14:41:46.438Z,16.45
2023-05-24T14:44:19.529Z,16.47
2023-05-24T14:46:51.282Z,16.47
2023-05-24T14:49:25.202Z,16.35
2023-05-24T14:51:58.003Z,16.33
2023-05-24T14:54:30.559Z,16.34
2023-05-24T14:57:04.080Z,16.38
2023-05-24T14:59:35.291Z,16.41
2023-05-24T15:02:09.591Z,16.29
2023-05-24T15:04:42.224Z,16.28
2023-05-24T15:07:15.922Z,16.31
2023-05-24T15:09:48.436Z,16.30
2023-05-24T15:12:21.550Z,16.27
2023-05-24T15:14:54.202Z,16.22
2023-05-24T15:17:27.614Z,16.14
2023-05-24T15:20:01.100Z,16.04
2023-05-24T15:22:31.952Z,15.97
2023-05-24T15:25:04.672Z,15.88
2023-05-24T15:27:37.481Z,15.88
2023-05-24T15:30:11.831Z,15.83
2023-05-24T15:32:46.267Z,15.78
2023-05-24T15:35:20.656Z,15.75
2023-05-24T15:37:53.669Z,15.74
2023-05-24T15:40:26.651Z,15.72
2023-05-24T15:42:59.627Z,15.71
2023-05-24T15:45:31.228Z,15.61
2023-05-24T15:48:06.329Z,15.52
2023-05-24T15:50:59.967Z,15.53
2023-05-24T15:53:32.474Z,15.51
2023-05-24T15:56:03.164Z,15.50
2023-05-24T15:58:36.085Z,15.45
2023-05-24T16:01:08.845Z,15.42
2023-05-24T16:03:41.660Z,15.41
2023-05-24T16:06:14.832Z,15.38
2023-05-24T16:08:49.978Z,15.34
2023-05-24T16:11:23.921Z,15.33
2023-05-24T16:13:57.519Z,15.26
2023-05-24T16:16:30.190Z,15.24
2023-05-24T16:19:04.282Z,15.20
2023-05-24T16:21:37.289Z,15.18
2023-05-24T16:24:10.171Z,15.16
2023-05-24T16:26:43.393Z,15.13
2023-05-24T16:29:18.386Z,15.12
2023-05-24T16:31:51.776Z,15.11
2023-05-24T16:34:28.196Z,15.03
2023-05-24T16:37:01.388Z,15.07
2023-05-24T16:39:37.087Z,15.05
2023-05-24T16:42:09.804Z,15.03
2023-05-24T16:44:43.886Z,15.01
2023-05-24T16:47:17.992Z,14.98
2023-05-24T16:49:50.987Z,14.94
2023-05-24T16:52:23.819Z,14.92
2023-05-24T16:54:57.048Z,14.87
2023-05-24T16:57:29.612Z,14.81
2023-05-24T17:00:02.380Z,14.78
2023-05-24T17:02:35.559Z,14.73
2023-05-24T17:05:09.409Z,14.71
2023-05-24T17:07:43.190Z,14.70
2023-05-24T17:10:16.450Z,14.69
2023-05-24T17:12:49.875Z,14.64
2023-05-24T17:15:23.247Z,14.61
2023-05-24T17:17:56.555Z,14.61
2023-05-24T17:20:29.930Z,14.59
2023-05-24T17:23:02.785Z,14.57
2023-05-24T17:25:37.929Z,14.50
2023-05-24T17:28:13.446Z,14.47
2023-05-24T17:30:46.228Z,14.46
2023-05-24T17:33:19.619Z,14.46
2023-05-24T17:35:58.065Z,14.47
2023-05-24T17:38:33.353Z,14.46
2023-05-24T17:41:08.281Z,14.41
2023-05-24T17:43:42.548Z,14.36
2023-05-24T17:46:18.623Z,14.32
2023-05-24T17:48:52.379Z,14.27
2023-05-24T17:51:25.844Z,14.20
2023-05-24T17:53:56.524Z,14.17
2023-05-24T17:56:32.201Z,14.09
2023-05-24T17:59:05.476Z,14.10
2023-05-24T18:01:40.362Z,14.09
2023-05-24T18:04:13.284Z,14.10
2023-05-24T18:06:46.542Z,14.09
2023-05-24T18:09:21.420Z,14.06
2023-05-24T18:11:56.720Z,14.03
2023-05-24T18:14:31.397Z,14.03
2023-05-24T18:17:09.836Z,14.03
2023-05-24T18:19:43.788Z,13.97
2023-05-24T18:22:16.674Z,13.93
2023-05-24T18:24:49.316Z,13.88
2023-05-24T18:27:22.314Z,13.86
2023-05-24T18:29:53.564Z,13.85
2023-05-24T18:32:27.947Z,13.74
2023-05-24T18:35:01.576Z,13.77
2023-05-24T18:37:35.084Z,13.76
2023-05-24T18:40:13.968Z,13.73
2023-05-24T18:42:47.563Z,13.73
2023-05-24T18:45:20.952Z,13.71
2023-05-24T18:47:54.576Z,13.71
2023-05-24T18:50:28.850Z,13.72
2023-05-24T18:53:02.196Z,13.69
2023-05-24T18:55:35.246Z,13.69
2023-05-24T18:58:08.194Z,13.67
2023-05-24T19:00:40.818Z,13.67
2023-05-24T19:03:14.281Z,13.67
2023-05-24T19:05:48.999Z,13.66
2023-05-24T19:08:22.922Z,13.59
2023-05-24T19:10:56.576Z,13.56
2023-05-24T19:13:29.274Z,13.57
2023-05-24T19:16:02.180Z,13.55
2023-05-24T19:18:35.502Z,13.54
2023-05-24T19:21:09.525Z,13.51
2023-05-24T19:23:42.949Z,13.47
2023-05-24T19:26:13.576Z,13.42
2023-05-24T19:28:50.896Z,13.36
2023-05-24T19:31:26.011Z,13.38
2023-05-24T19:34:01.010Z,13.38
2023-05-24T19:36:34.297Z,13.36
2023-05-24T19:39:07.565Z,13.35
2023-05-24T19:41:40.345Z,13.33
2023-05-24T19:44:13.657Z,13.33
2023-05-24T19:46:45.426Z,13.30
2023-05-24T19:49:18.451Z,13.26
2023-05-24T19:51:51.031Z,13.26
2023-05-24T19:54:25.317Z,13.28
2023-05-24T19:56:58.749Z,13.27
2023-05-24T19:59:30.204Z,13.28
2023-05-24T20:02:03.059Z,13.24
2023-05-24T20:04:35.983Z,13.24
2023-05-24T20:07:09.094Z,13.22
2023-05-24T20:09:43.367Z,13.21
2023-05-24T20:12:16.376Z,13.24
2023-05-24T20:14:51.655Z,13.22
2023-05-24T20:17:24.618Z,13.22
2023-05-24T20:19:58.930Z,13.22
2023-05-24T20:22:34.696Z,13.18
2023-05-24T20:25:13.936Z,13.16
2023-05-24T20:27:47.354Z,13.16
2023-05-24T20:30:21.795Z,13.14
2023-05-24T20:32:55.524Z,13.14
2023-05-24T20:35:28.997Z,13.09
2023-05-24T20:38:01.708Z,13.04
2023-05-24T20:40:34.488Z,13.03
2023-05-24T20:43:08.985Z,13.03
2023-05-24T20:45:42.355Z,12.97
2023-05-24T20:48:15.510Z,12.94
2023-05-24T20:50:49.756Z,12.95
2023-05-24T20:53:22.670Z,12.91
2023-05-24T20:55:57.735Z,12.91
2023-05-24T20:58:31.222Z,12.88
2023-05-24T21:01:03.838Z,12.83
2023-05-24T21:03:37.757Z,12.78
2023-05-24T21:06:10.901Z,12.76
2023-05-24T21:08:46.463Z,12.72
2023-05-24T21:11:19.266Z,12.65
2023-05-24T21:13:52.114Z,12.64
2023-05-24T21:16:25.167Z,12.65
2023-05-24T21:19:00.875Z,12.65
2023-05-24T21:21:33.535Z,12.66
2023-05-24T21:24:06.755Z,12.61
2023-05-24T21:26:39.898Z,12.59
2023-05-24T21:29:14.183Z,12.56
2023-05-24T21:31:47.099Z,12.56
2023-05-24T21:34:19.900Z,12.57
2023-05-24T21:36:52.443Z,12.55
2023-05-24T21:39:25.642Z,12.52
2023-05-24T21:41:58.133Z,12.51
2023-05-24T21:44:30.907Z,12.51
2023-05-24T21:47:03.359Z,12.50
2023-05-24T21:49:36.211Z,12.48
2023-05-24T21:52:09.259Z,12.48
2023-05-24T21:54:42.334Z,12.46
2023-05-24T21:57:15.196Z,12.44
2023-05-24T21:59:48.207Z,12.42
2023-05-24T22:02:21.145Z,12.40
2023-05-24T22:04:54.141Z,12.38
2023-05-24T22:07:27.321Z,12.36
2023-05-24T22:10:00.251Z,12.35
2023-05-24T22:12:32.821Z,12.32
2023-05-24T22:15:06.441Z,12.30
2023-05-24T22:17:41.470Z,12.27
2023-05-24T22:20:16.662Z,12.17
2023-05-24T22:22:53.858Z,12.20
2023-05-24T22:25:28.533Z,12.20
2023-05-24T22:28:01.566Z,12.14
2023-05-24T22:30:35.667Z,12.11
2023-05-24T22:33:08.449Z,12.07
2023-05-24T22:35:41.670Z,12.06
2023-05-24T22:38:14.743Z,12.03
2023-05-24T22:40:47.770Z,12.04
2023-05-24T22:43:20.187Z,12.05
2023-05-24T22:45:53.236Z,12.03
2023-05-24T22:48:27.088Z,12.05
2023-05-24T22:50:59.807Z,12.07
2023-05-24T22:53:32.662Z,12.10
2023-05-24T22:56:06.257Z,12.08
2023-05-24T22:58:39.517Z,12.09
2023-05-24T23:01:12.208Z,12.11
2023-05-24T23:03:45.052Z,12.12
2023-05-24T23:06:18.063Z,12.11
2023-05-24T23:08:50.833Z,12.12
2023-05-24T23:11:25.039Z,12.10
2023-05-24T23:13:59.922Z,12.08
2023-05-24T23:16:34.547Z,12.08
2023-05-24T23:19:07.213Z,12.05
2023-05-24T23:21:42.501Z,12.03
2023-05-24T23:24:16.190Z,12.02
2023-05-24T23:26:48.641Z,12.05
2023-05-24T23:29:21.144Z,12.04
2023-05-24T23:31:54.325Z,12.01
2023-05-24T23:34:27.082Z,11.99
2023-05-24T23:37:00.171Z,11.98
2023-05-24T23:39:35.059Z,11.99
2023-05-24T23:42:08.742Z,11.96
2023-05-24T23:44:39.362Z,11.92
2023-05-24T23:47:12.200Z,11.86
2023-05-24T23:49:44.784Z,11.85
2023-05-24T23:52:17.496Z,11.82
2023-05-24T23:54:50.124Z,11.82
2023-05-24T23:57:25.476Z,11.80
2023-05-24T23:59:57.995Z,11.82
